createdAt,value
2018-11-29T00:01:58.756Z,21.18
2018-11-29T00:04:26.423Z,21.19
2018-11-29T00:06:54.078Z,21.24
2018-11-29T00:09:21.716Z,21.27
2018-11-29T00:11:49.336Z,21.22
2018-11-29T00:14:16.971Z,21.23
2018-11-29T00:16:44.612Z,21.25
2018-11-29T00:19:12.248Z,21.30
2018-11-29T00:21:39.874Z,21.28
2018-11-29T00:24:07.535Z,21.22
2018-11-29T00:26:35.142Z,21.25
2018-11-29T00:29:02.805Z,21.24
2018-11-29T00:31:30.433Z,21.23
2018-11-29T00:33:58.087Z,21.20
2018-11-29T00:36:25.710Z,21.22
2018-11-29T00:38:53.329Z,21.24
2018-11-29T00:41:20.957Z,21.22
2018-11-29T00:43:48.571Z,21.29
2018-11-29T00:46:16.263Z,21.19
2018-11-29T00:48:43.875Z,21.21
2018-11-29T00:51:11.555Z,21.24
2018-11-29T00:53:39.170Z,21.24
2018-11-29T00:56:06.798Z,21.21
2018-11-29T00:58:34.427Z,21.20
2018-11-29T01:01:02.051Z,21.27
2018-11-29T01:03:29.667Z,21.24
2018-11-29T01:05:57.278Z,21.28
2018-11-29T01:08:24.931Z,21.30
2018-11-29T01:10:52.570Z,21.24
2018-11-29T01:13:20.192Z,21.26
2018-11-29T01:15:47.828Z,21.29
2018-11-29T01:18:15.459Z,21.27
2018-11-29T01:20:43.100Z,21.28
2018-11-29T01:23:10.719Z,21.23
2018-11-29T01:25:38.340Z,21.25
2018-11-29T01:28:06.006Z,21.28
2018-11-29T01:30:33.661Z,21.27
2018-11-29T01:33:01.295Z,21.30
2018-11-29T01:35:28.910Z,21.23
2018-11-29T01:37:56.567Z,21.25
2018-11-29T01:40:24.226Z,21.26
2018-11-29T01:42:54.458Z,21.25
2018-11-29T01:45:22.115Z,21.30
2018-11-29T01:47:49.769Z,21.26
2018-11-29T01:50:17.417Z,21.26
2018-11-29T01:52:45.059Z,21.29
2018-11-29T01:55:12.679Z,21.28
2018-11-29T01:57:40.291Z,21.29
2018-11-29T02:00:13.516Z,21.22
2018-11-29T02:02:41.163Z,21.35
2018-11-29T02:05:09.462Z,21.25
2018-11-29T02:07:37.771Z,21.20
2018-11-29T02:10:11.613Z,21.23
2018-11-29T02:12:39.267Z,21.28
2018-11-29T02:15:07.150Z,21.23
2018-11-29T02:17:34.781Z,21.28
2018-11-29T02:20:02.500Z,21.29
2018-11-29T02:22:30.136Z,21.28
2018-11-29T02:24:57.768Z,21.29
2018-11-29T02:27:25.384Z,21.27
2018-11-29T02:29:53.017Z,21.23
2018-11-29T02:32:20.724Z,21.32
2018-11-29T02:34:48.367Z,21.30
2018-11-29T02:37:16.019Z,21.28
2018-11-29T02:39:43.639Z,21.29
2018-11-29T02:42:11.266Z,21.33
2018-11-29T02:44:39.035Z,21.33
2018-11-29T02:47:06.655Z,21.29
2018-11-29T02:49:34.301Z,21.28
2018-11-29T02:52:01.936Z,21.29
2018-11-29T02:54:29.559Z,21.30
2018-11-29T02:56:57.203Z,21.29
2018-11-29T02:59:24.835Z,21.27
2018-11-29T03:01:52.455Z,21.29
2018-11-29T03:04:20.083Z,21.29
2018-11-29T03:06:47.744Z,21.25
2018-11-29T03:09:15.373Z,21.27
2018-11-29T03:11:42.990Z,21.26
2018-11-29T03:14:10.659Z,21.22
2018-11-29T03:16:38.279Z,21.27
2018-11-29T03:19:06.192Z,21.32
2018-11-29T03:21:33.854Z,21.28
2018-11-29T03:24:01.496Z,21.33
2018-11-29T03:26:29.124Z,21.26
2018-11-29T03:28:56.748Z,21.23
2018-11-29T03:31:24.390Z,21.27
2018-11-29T03:33:52.038Z,21.27
2018-11-29T03:36:19.680Z,21.27
2018-11-29T03:38:47.316Z,21.26
2018-11-29T03:41:14.954Z,21.21
2018-11-29T03:43:42.588Z,21.24
2018-11-29T03:46:10.215Z,21.26
2018-11-29T03:48:37.853Z,21.27
2018-11-29T03:51:05.528Z,21.27
2018-11-29T03:53:33.175Z,21.21
2018-11-29T03:56:00.794Z,21.24
2018-11-29T03:58:28.462Z,21.31
2018-11-29T04:00:56.099Z,21.27
2018-11-29T04:03:23.734Z,21.22
2018-11-29T04:05:51.358Z,21.18
2018-11-29T04:08:18.982Z,21.23
2018-11-29T04:10:46.616Z,21.27
2018-11-29T04:13:14.244Z,21.28
2018-11-29T04:15:41.972Z,21.24
2018-11-29T04:18:09.607Z,21.17
2018-11-29T04:20:37.246Z,21.23
2018-11-29T04:23:04.963Z,21.23
2018-11-29T04:25:32.599Z,21.22
2018-11-29T04:28:00.235Z,21.17
2018-11-29T04:30:27.893Z,21.21
2018-11-29T04:32:55.531Z,21.28
2018-11-29T04:35:23.192Z,21.27
2018-11-29T04:37:51.196Z,21.25
2018-11-29T04:40:19.856Z,21.22
2018-11-29T04:42:47.711Z,20.58
2018-11-29T04:45:16.717Z,21.23
2018-11-29T04:47:44.379Z,21.24
2018-11-29T04:50:12.151Z,21.24
2018-11-29T04:52:40.163Z,21.19
2018-11-29T04:55:08.634Z,21.15
2018-11-29T04:57:36.347Z,21.26
2018-11-29T05:00:04.645Z,21.27
2018-11-29T05:02:32.474Z,21.27
2018-11-29T05:05:00.607Z,21.30
2018-11-29T05:07:28.663Z,21.24
2018-11-29T05:09:56.320Z,21.24
2018-11-29T05:12:23.979Z,21.24
2018-11-29T05:14:51.598Z,21.20
2018-11-29T05:17:19.284Z,21.29
2018-11-29T05:19:46.922Z,21.30
2018-11-29T05:22:14.616Z,21.26
2018-11-29T05:24:42.262Z,21.19
2018-11-29T05:27:09.930Z,21.17
2018-11-29T05:29:37.559Z,21.23
2018-11-29T05:32:05.466Z,21.19
2018-11-29T05:34:33.092Z,21.18
2018-11-29T05:37:00.723Z,21.23
2018-11-29T05:39:28.350Z,21.20
2018-11-29T05:41:56.014Z,21.22
2018-11-29T05:44:23.638Z,21.24
2018-11-29T05:46:51.331Z,21.21
2018-11-29T05:49:18.971Z,21.22
2018-11-29T05:51:46.619Z,21.23
2018-11-29T05:54:14.259Z,21.19
2018-11-29T05:56:41.955Z,21.22
2018-11-29T05:59:09.589Z,21.20
2018-11-29T06:01:39.186Z,21.19
2018-11-29T06:04:06.831Z,21.24
2018-11-29T06:06:34.454Z,21.23
2018-11-29T06:09:02.105Z,21.25
2018-11-29T06:11:29.807Z,21.18
2018-11-29T06:13:57.459Z,21.19
2018-11-29T06:16:25.270Z,21.25
2018-11-29T06:18:52.906Z,21.22
2018-11-29T06:21:20.542Z,21.22
2018-11-29T06:23:48.170Z,21.30
2018-11-29T06:26:15.843Z,21.28
2018-11-29T06:28:43.466Z,21.25
2018-11-29T06:31:11.104Z,21.28
2018-11-29T06:33:38.733Z,21.25
2018-11-29T06:36:06.355Z,21.29
2018-11-29T06:38:33.996Z,21.27
2018-11-29T06:41:01.647Z,21.28
2018-11-29T06:43:29.267Z,21.31
2018-11-29T06:45:56.887Z,21.31
2018-11-29T06:48:24.532Z,21.28
2018-11-29T06:50:52.164Z,21.32
2018-11-29T06:53:25.131Z,21.30
2018-11-29T06:55:52.979Z,21.29
2018-11-29T06:58:20.627Z,21.33
2018-11-29T07:00:48.411Z,21.35
2018-11-29T07:03:16.052Z,21.36
2018-11-29T07:05:43.687Z,21.39
2018-11-29T07:08:11.340Z,21.36
2018-11-29T07:10:38.962Z,21.32
2018-11-29T07:13:06.943Z,21.32
2018-11-29T07:15:34.572Z,21.40
2018-11-29T07:18:02.230Z,21.34
2018-11-29T07:20:29.865Z,21.42
2018-11-29T07:22:57.519Z,21.35
2018-11-29T07:25:25.160Z,21.43
2018-11-29T07:27:52.804Z,21.38
2018-11-29T07:30:20.529Z,21.32
2018-11-29T07:32:48.153Z,21.37
2018-11-29T07:35:16.258Z,21.36
2018-11-29T07:37:43.895Z,21.42
2018-11-29T07:40:14.913Z,21.42
2018-11-29T07:42:42.599Z,21.45
2018-11-29T07:45:12.091Z,21.48
2018-11-29T07:47:39.736Z,21.41
2018-11-29T07:50:10.335Z,21.41
2018-11-29T07:52:37.966Z,21.45
2018-11-29T07:55:07.385Z,21.43
2018-11-29T07:57:35.019Z,21.44
2018-11-29T08:00:02.684Z,21.48
2018-11-29T08:02:30.312Z,21.50
2018-11-29T08:04:57.955Z,21.51
2018-11-29T08:07:25.582Z,21.41
2018-11-29T08:09:53.210Z,21.46
2018-11-29T08:12:20.848Z,21.46
2018-11-29T08:14:48.492Z,21.41
2018-11-29T08:17:16.143Z,21.41
2018-11-29T08:19:43.791Z,21.43
2018-11-29T08:22:11.425Z,21.42
2018-11-29T08:24:39.083Z,21.43
2018-11-29T08:27:06.715Z,21.44
2018-11-29T08:29:35.155Z,21.42
2018-11-29T08:32:02.023Z,21.44
2018-11-29T08:34:29.672Z,21.48
2018-11-29T08:36:57.349Z,21.48
2018-11-29T08:39:24.981Z,21.45
2018-11-29T08:41:52.631Z,21.45
2018-11-29T08:44:20.276Z,21.49
2018-11-29T08:46:47.920Z,21.43
2018-11-29T08:49:15.561Z,21.44
2018-11-29T08:51:43.209Z,21.46
2018-11-29T08:54:10.855Z,21.48
2018-11-29T08:56:38.491Z,21.45
2018-11-29T08:59:06.391Z,21.51
2018-11-29T09:01:34.019Z,21.53
2018-11-29T09:04:01.735Z,21.55
2018-11-29T09:06:29.387Z,21.58
2018-11-29T09:08:57.025Z,21.63
2018-11-29T09:11:24.694Z,21.65
2018-11-29T09:13:52.328Z,21.65
2018-11-29T09:16:19.944Z,21.64
2018-11-29T09:18:47.579Z,21.69
2018-11-29T09:21:15.226Z,21.70
2018-11-29T09:23:42.874Z,21.74
2018-11-29T09:26:10.499Z,21.79
2018-11-29T09:28:38.121Z,21.76
2018-11-29T09:31:06.005Z,21.84
2018-11-29T09:33:33.637Z,21.83
2018-11-29T09:36:01.267Z,21.79
2018-11-29T09:38:28.978Z,21.91
2018-11-29T09:40:56.645Z,21.84
2018-11-29T09:43:24.318Z,21.80
2018-11-29T09:45:51.938Z,21.81
2018-11-29T09:48:19.559Z,21.78
2018-11-29T09:50:47.224Z,21.88
2018-11-29T09:53:14.851Z,21.86
2018-11-29T09:55:42.480Z,21.81
2018-11-29T09:58:10.115Z,21.79
2018-11-29T10:00:37.750Z,21.82
2018-11-29T10:03:09.860Z,21.84
2018-11-29T10:05:37.623Z,21.91
2018-11-29T10:08:11.552Z,21.80
2018-11-29T10:10:33.648Z,21.83
2018-11-29T10:13:01.289Z,21.90
2018-11-29T10:15:28.912Z,21.81
2018-11-29T10:17:56.545Z,21.79
2018-11-29T10:20:24.180Z,21.89
2018-11-29T10:22:51.808Z,21.85
2018-11-29T10:25:19.421Z,21.88
2018-11-29T10:27:47.971Z,21.82
2018-11-29T10:30:18.504Z,21.86
2018-11-29T10:32:46.228Z,21.88
2018-11-29T10:35:13.910Z,21.83
2018-11-29T10:37:41.564Z,21.85
2018-11-29T10:40:09.893Z,21.87
2018-11-29T10:42:37.532Z,21.94
2018-11-29T10:45:07.132Z,21.87
2018-11-29T10:47:34.746Z,21.95
2018-11-29T10:50:02.381Z,21.92
2018-11-29T10:52:30.035Z,21.92
2018-11-29T10:54:57.673Z,22.01
2018-11-29T10:57:25.356Z,21.93
2018-11-29T10:59:52.983Z,21.95
2018-11-29T11:02:25.868Z,21.98
2018-11-29T11:04:53.488Z,22.00
2018-11-29T11:07:21.098Z,21.97
2018-11-29T11:09:48.754Z,21.88
2018-11-29T11:12:18.761Z,21.94
2018-11-29T11:14:44.059Z,21.90
2018-11-29T11:17:11.688Z,21.96
2018-11-29T11:19:39.323Z,21.92
2018-11-29T11:22:06.962Z,21.94
2018-11-29T11:24:34.616Z,21.91
2018-11-29T11:27:02.238Z,21.87
2018-11-29T11:29:29.867Z,21.87
2018-11-29T11:31:57.492Z,21.88
2018-11-29T11:34:25.135Z,21.89
2018-11-29T11:36:52.776Z,21.83
2018-11-29T11:39:20.403Z,21.87
2018-11-29T11:41:48.060Z,21.89
2018-11-29T11:44:15.671Z,21.88
2018-11-29T11:46:43.306Z,21.83
2018-11-29T11:49:10.936Z,21.79
2018-11-29T11:51:38.560Z,21.85
2018-11-29T11:54:06.196Z,21.86
2018-11-29T11:56:33.833Z,21.79
2018-11-29T11:59:01.480Z,21.91
2018-11-29T12:01:29.114Z,21.84
2018-11-29T12:03:56.776Z,21.85
2018-11-29T12:06:24.403Z,21.85
2018-11-29T12:08:52.038Z,21.81
2018-11-29T12:11:19.676Z,21.80
2018-11-29T12:13:47.327Z,21.83
2018-11-29T12:16:14.960Z,21.86
2018-11-29T12:18:42.616Z,21.79
2018-11-29T12:21:10.226Z,21.91
2018-11-29T12:23:37.932Z,21.85
2018-11-29T12:26:05.662Z,21.84
2018-11-29T12:28:33.296Z,21.92
2018-11-29T12:31:00.949Z,21.85
2018-11-29T12:33:28.588Z,21.89
2018-11-29T12:35:56.224Z,21.85
2018-11-29T12:38:23.886Z,21.77
2018-11-29T12:40:51.520Z,21.85
2018-11-29T12:43:19.150Z,21.85
2018-11-29T12:45:46.780Z,21.84
2018-11-29T12:48:14.424Z,21.85
2018-11-29T12:50:42.068Z,21.86
2018-11-29T12:53:09.690Z,21.88
2018-11-29T12:55:42.025Z,21.80
2018-11-29T12:58:09.653Z,21.77
2018-11-29T13:00:37.303Z,21.74
2018-11-29T13:05:35.643Z,21.79
2018-11-29T13:08:03.267Z,21.72
2018-11-29T13:10:30.907Z,21.72
2018-11-29T13:12:58.540Z,21.69
2018-11-29T13:15:27.776Z,21.71
2018-11-29T13:17:55.751Z,21.66
2018-11-29T13:20:23.402Z,21.68
2018-11-29T13:22:51.040Z,21.75
2018-11-29T13:25:19.200Z,21.71
2018-11-29T13:27:46.927Z,21.67
2018-11-29T13:30:15.142Z,21.69
2018-11-29T13:32:42.811Z,21.71
2018-11-29T13:35:12.879Z,21.66
2018-11-29T13:37:40.548Z,21.68
2018-11-29T13:40:09.608Z,21.71
2018-11-29T13:42:37.502Z,21.67
2018-11-29T13:45:06.035Z,21.72
2018-11-29T13:47:33.650Z,21.68
2018-11-29T13:50:01.302Z,21.60
2018-11-29T13:52:29.001Z,21.66
2018-11-29T13:54:56.618Z,21.64
2018-11-29T13:57:24.250Z,21.68
2018-11-29T13:59:51.868Z,21.60
2018-11-29T14:02:19.523Z,21.59
2018-11-29T14:04:47.149Z,21.61
2018-11-29T14:07:14.795Z,20.36
2018-11-29T14:09:42.500Z,21.61
2018-11-29T14:12:10.122Z,21.60
2018-11-29T14:14:37.749Z,21.55
2018-11-29T14:17:05.373Z,21.56
2018-11-29T14:19:32.995Z,21.61
2018-11-29T14:22:00.614Z,21.60
2018-11-29T14:24:28.231Z,21.63
2018-11-29T14:26:55.890Z,21.60
2018-11-29T14:29:23.528Z,21.61
2018-11-29T14:31:51.188Z,21.60
2018-11-29T14:34:18.811Z,21.59
2018-11-29T14:36:46.469Z,21.60
2018-11-29T14:39:14.114Z,21.59
2018-11-29T14:41:41.737Z,21.53
2018-11-29T14:44:09.387Z,21.59
2018-11-29T14:46:37.008Z,21.56
2018-11-29T14:49:04.645Z,21.55
2018-11-29T14:51:32.425Z,21.54
2018-11-29T14:54:00.050Z,21.53
2018-11-29T14:56:27.680Z,21.56
2018-11-29T14:58:55.341Z,21.53
2018-11-29T15:01:23.029Z,21.55
2018-11-29T15:03:50.648Z,21.54
2018-11-29T15:06:18.264Z,21.51
2018-11-29T15:08:45.907Z,21.52
2018-11-29T15:11:13.579Z,21.56
2018-11-29T15:13:41.203Z,21.58
2018-11-29T15:16:08.836Z,21.49
2018-11-29T15:18:36.460Z,21.49
2018-11-29T15:21:04.144Z,21.53
2018-11-29T15:23:31.778Z,21.52
2018-11-29T15:25:59.415Z,21.49
2018-11-29T15:28:27.035Z,21.45
2018-11-29T15:30:54.684Z,21.45
2018-11-29T15:33:22.314Z,21.42
2018-11-29T15:35:49.970Z,21.47
2018-11-29T15:38:17.645Z,21.52
2018-11-29T15:40:45.274Z,21.45
2018-11-29T15:43:12.907Z,21.45
2018-11-29T15:45:40.518Z,21.40
2018-11-29T15:48:08.166Z,21.38
2018-11-29T15:50:35.801Z,21.41
2018-11-29T15:53:03.530Z,21.41
2018-11-29T15:55:31.207Z,21.43
2018-11-29T15:57:58.836Z,21.44
2018-11-29T16:00:27.100Z,21.42
2018-11-29T16:02:55.283Z,21.42
2018-11-29T16:05:23.706Z,21.43
2018-11-29T16:07:51.457Z,21.45
2018-11-29T16:10:19.762Z,21.41
2018-11-29T16:12:47.499Z,21.44
2018-11-29T16:15:15.721Z,21.45
2018-11-29T16:17:43.673Z,21.42
2018-11-29T16:20:13.103Z,21.43
2018-11-29T16:22:40.928Z,21.43
2018-11-29T16:25:09.380Z,21.36
2018-11-29T16:27:37.112Z,21.37
2018-11-29T16:30:07.924Z,21.39
2018-11-29T16:32:35.674Z,21.41
2018-11-29T16:35:03.521Z,21.41
2018-11-29T16:37:31.148Z,21.41
2018-11-29T16:39:58.867Z,21.42
2018-11-29T16:42:26.602Z,21.38
2018-11-29T16:44:54.336Z,21.40
2018-11-29T16:47:22.048Z,21.37
2018-11-29T16:49:49.818Z,21.33
2018-11-29T16:52:17.503Z,21.37
2018-11-29T16:54:45.123Z,21.42
2018-11-29T16:57:12.760Z,21.37
2018-11-29T16:59:40.400Z,21.22
2018-11-29T17:02:08.035Z,21.24
2018-11-29T17:04:35.664Z,21.33
2018-11-29T17:07:03.316Z,21.33
2018-11-29T17:09:30.947Z,21.31
2018-11-29T17:12:00.284Z,21.33
2018-11-29T17:14:26.299Z,21.32
2018-11-29T17:16:53.938Z,21.28
2018-11-29T17:19:21.853Z,21.30
2018-11-29T17:21:49.471Z,21.31
2018-11-29T17:24:17.082Z,21.31
2018-11-29T17:26:44.695Z,21.32
2018-11-29T17:29:12.320Z,21.27
2018-11-29T17:31:39.946Z,21.29
2018-11-29T17:34:07.581Z,21.25
2018-11-29T17:36:35.203Z,21.24
2018-11-29T17:39:02.918Z,21.27
2018-11-29T17:41:30.559Z,21.26
2018-11-29T17:43:58.526Z,21.23
2018-11-29T17:46:30.479Z,21.27
2018-11-29T17:48:58.197Z,21.26
2018-11-29T17:51:25.893Z,21.20
2018-11-29T17:53:53.511Z,21.23
2018-11-29T17:56:21.181Z,21.19
2018-11-29T17:58:48.802Z,21.22
2018-11-29T18:01:16.525Z,21.23
2018-11-29T18:03:44.163Z,21.25
2018-11-29T18:06:11.794Z,21.22
2018-11-29T18:08:39.441Z,21.20
2018-11-29T18:11:07.596Z,21.25
2018-11-29T18:13:35.744Z,21.23
2018-11-29T18:16:03.395Z,21.22
2018-11-29T18:18:31.019Z,21.21
2018-11-29T18:20:58.664Z,21.20
2018-11-29T18:23:26.317Z,21.20
2018-11-29T18:25:54.363Z,21.17
2018-11-29T18:28:22.020Z,21.19
2018-11-29T18:30:49.651Z,21.25
2018-11-29T18:33:17.282Z,21.23
2018-11-29T18:35:44.911Z,21.19
2018-11-29T18:38:12.545Z,21.23
2018-11-29T18:40:40.194Z,21.21
2018-11-29T18:43:08.616Z,21.27
2018-11-29T18:45:36.253Z,21.26
2018-11-29T18:48:03.884Z,21.21
2018-11-29T18:50:31.547Z,21.21
2018-11-29T18:52:59.185Z,21.20
2018-11-29T18:55:26.798Z,21.19
2018-11-29T18:57:55.103Z,21.17
2018-11-29T19:00:24.435Z,21.20
2018-11-29T19:02:56.741Z,21.19
2018-11-29T19:05:19.733Z,21.18
2018-11-29T19:07:47.360Z,21.19
2018-11-29T19:10:16.376Z,21.19
2018-11-29T19:12:44.757Z,21.14
2018-11-29T19:15:12.743Z,21.14
2018-11-29T19:17:40.457Z,21.16
2018-11-29T19:20:09.391Z,21.19
2018-11-29T19:22:37.018Z,21.18
2018-11-29T19:25:05.106Z,21.19
2018-11-29T19:27:32.778Z,21.18
2018-11-29T19:30:04.301Z,21.22
2018-11-29T19:32:28.126Z,21.22
2018-11-29T19:34:55.756Z,21.23
2018-11-29T19:37:23.403Z,21.22
2018-11-29T19:39:51.047Z,21.21
2018-11-29T19:42:18.680Z,21.19
2018-11-29T19:44:46.316Z,21.23
2018-11-29T19:47:13.943Z,21.20
2018-11-29T19:49:41.599Z,21.20
2018-11-29T19:52:09.255Z,21.18
2018-11-29T19:54:36.879Z,21.17
2018-11-29T19:57:04.652Z,21.18
2018-11-29T19:59:32.308Z,21.20
2018-11-29T20:01:59.937Z,21.22
2018-11-29T20:04:27.573Z,21.19
2018-11-29T20:06:55.218Z,21.22
2018-11-29T20:09:22.843Z,21.23
2018-11-29T20:11:50.466Z,21.25
2018-11-29T20:14:18.093Z,21.25
2018-11-29T20:16:45.811Z,21.22
2018-11-29T20:19:13.472Z,21.27
2018-11-29T20:21:41.113Z,21.26
2018-11-29T20:24:08.771Z,21.24
2018-11-29T20:26:36.410Z,21.24
2018-11-29T20:29:04.132Z,21.18
2018-11-29T20:31:31.757Z,21.20
2018-11-29T20:33:59.379Z,21.21
2018-11-29T20:36:27.023Z,21.61
2018-11-29T20:38:54.659Z,21.47
2018-11-29T20:41:22.343Z,21.37
2018-11-29T20:43:49.994Z,21.24
2018-11-29T20:46:17.620Z,21.30
2018-11-29T20:48:45.830Z,21.31
2018-11-29T20:51:13.495Z,21.32
2018-11-29T20:53:41.171Z,21.31
2018-11-29T20:56:09.652Z,21.29
2018-11-29T20:58:37.336Z,21.28
2018-11-29T21:01:05.392Z,21.32
2018-11-29T21:03:33.021Z,21.31
2018-11-29T21:06:00.667Z,21.24
2018-11-29T21:08:28.303Z,21.22
2018-11-29T21:10:55.951Z,21.26
2018-11-29T21:13:23.683Z,21.28
2018-11-29T21:15:51.303Z,21.24
2018-11-29T21:18:18.960Z,21.23
2018-11-29T21:20:46.587Z,21.23
2018-11-29T21:23:14.950Z,21.24
2018-11-29T21:25:42.649Z,21.24
2018-11-29T21:28:10.287Z,21.24
2018-11-29T21:30:37.949Z,21.18
2018-11-29T21:33:05.932Z,21.22
2018-11-29T21:35:33.616Z,21.21
2018-11-29T21:38:04.746Z,21.23
2018-11-29T21:40:32.480Z,21.25
2018-11-29T21:43:00.108Z,21.27
2018-11-29T21:45:27.845Z,21.21
2018-11-29T21:47:55.500Z,21.21
2018-11-29T21:50:23.164Z,21.20
2018-11-29T21:52:50.812Z,21.26
2018-11-29T21:55:18.467Z,21.23
2018-11-29T21:57:46.127Z,21.22
2018-11-29T22:00:14.602Z,21.25
2018-11-29T22:02:43.431Z,21.22
2018-11-29T22:05:11.116Z,21.19
2018-11-29T22:07:38.797Z,21.21
2018-11-29T22:10:06.470Z,21.17
2018-11-29T22:12:34.125Z,21.20
2018-11-29T22:15:01.780Z,21.19
2018-11-29T22:17:29.439Z,21.23
2018-11-29T22:19:57.091Z,21.18
2018-11-29T22:22:28.348Z,21.18
2018-11-29T22:24:52.463Z,21.22
2018-11-29T22:27:20.095Z,21.21
2018-11-29T22:29:47.740Z,21.17
2018-11-29T22:32:15.381Z,21.15
2018-11-29T22:34:43.035Z,21.16
2018-11-29T22:37:10.773Z,21.12
2018-11-29T22:39:38.386Z,21.15
2018-11-29T22:42:06.031Z,21.15
2018-11-29T22:44:33.739Z,21.14
2018-11-29T22:47:01.404Z,21.13
2018-11-29T22:49:29.078Z,21.12
2018-11-29T22:51:56.792Z,21.09
2018-11-29T22:54:24.537Z,21.10
2018-11-29T22:56:52.479Z,21.04
2018-11-29T22:59:20.140Z,21.07
2018-11-29T23:01:47.819Z,21.07
2018-11-29T23:04:15.480Z,21.05
2018-11-29T23:06:43.157Z,21.08
2018-11-29T23:09:10.814Z,21.08
2018-11-29T23:11:38.494Z,21.01
2018-11-29T23:14:06.385Z,21.06
2018-11-29T23:16:34.136Z,21.06
2018-11-29T23:19:01.843Z,21.08
2018-11-29T23:21:29.485Z,21.09
2018-11-29T23:23:57.143Z,21.09
2018-11-29T23:26:24.836Z,21.08
2018-11-29T23:28:52.516Z,21.06
2018-11-29T23:31:20.329Z,21.04
2018-11-29T23:33:48.022Z,21.01
2018-11-29T23:36:15.762Z,21.05
2018-11-29T23:38:43.408Z,21.04
2018-11-29T23:41:11.096Z,21.13
2018-11-29T23:43:38.743Z,21.09
2018-11-29T23:46:06.379Z,21.02
2018-11-29T23:48:34.044Z,21.00
2018-11-29T23:51:01.787Z,21.00
2018-11-29T23:53:29.436Z,21.02
2018-11-29T23:55:57.148Z,21.00
2018-11-29T23:58:24.820Z,20.99
